Stations météo

réclame
Mon MeteoGroup
Dravagen, Suède (2317): Température de l'air & dewpoint: 15.09.2018 10:00:00 - 21.09.2018 10:00:00 (CEST)Dravagen, Suède (2317): Vitesse du vent & gusts: 15.09.2018 10:00:00 - 21.09.2018 10:00:00 (CEST)Dravagen, Suède (2317): Direction du vent: 15.09.2018 10:00:00 - 21.09.2018 10:00:00 (CEST)Dravagen, Suède (2317): visibility: 15.09.2018 10:00:00 - 21.09.2018 10:00:00 (CEST)Dravagen, Suède (2317): Quantités de précipitations: 15.09.2018 10:00:00 - 21.09.2018 10:00:00 (CEST)
Date & Time tt [°C] td [°C] ff [km/h] ff [knt] fx [km/h] fx [knt] dd vv [km] rr [mm]
21.09.2018 10:00:00 - - - - - - - - -
21.09.2018 09:00:00 6,6 3,4 5 3 13 7 S 30 0,0
21.09.2018 08:00:00 6,2 2,6 6 3 21 11 W 33 0,0
21.09.2018 07:00:00 5,9 2,4 6 3 21 11 SW 39 0,0
21.09.2018 06:00:00 5,9 1,8 10 6 18 10 SW 46 0,0
21.09.2018 05:00:00 5,7 2,2 6 4 18 10 WSW 49 0,0
21.09.2018 04:00:00 6,1 1,0 8 5 22 12 SW 50 0,0
21.09.2018 03:00:00 6,6 0,3 5 3 22 12 NW 50 0,0
21.09.2018 02:00:00 5,8 0,6 3 1 29 16 SW 50 0,0
21.09.2018 01:00:00 6,3 0,2 6 3 34 18 N 50 0,0
21.09.2018 00:00:00 6,3 0,2 6 3 34 18 W 50 0,0
20.09.2018 23:00:00 6,0 -0,1 10 6 36 20 WSW 50 0,0
20.09.2018 22:00:00 6,7 -0,5 11 6 36 20 WSW 50 0,0
20.09.2018 21:00:00 7,1 0,5 16 9 37 20 WSW 50 0,0
20.09.2018 20:00:00 7,3 1,2 11 6 42 23 WSW 50 0,0
20.09.2018 19:00:00 9,1 1,5 19 10 40 22 SW 50 0,0
20.09.2018 18:00:00 10,9 0,0 16 9 51 27 WSW 50 0,0
20.09.2018 17:00:00 10,6 1,4 19 10 52 28 WSW 50 0,0
20.09.2018 16:00:00 11,4 1,3 23 12 57 31 SW 46 0,0
20.09.2018 15:00:00 11,9 1,8 23 13 57 31 SW 50 0,0
20.09.2018 14:00:00 11,3 1,8 23 12 52 28 SW 48 0,0
20.09.2018 13:00:00 12,2 2,9 20 11 49 26 SW 49 0,0
20.09.2018 12:00:00 11,4 2,7 23 12 50 27 WSW 39 0,0
20.09.2018 11:00:00 11,2 3,0 24 13 50 27 SW 38 0,0
20.09.2018 10:00:00 10,4 3,4 21 11 46 25 SW 50 0,0
20.09.2018 09:00:00 10,0 4,2 16 9 46 25 SW 44 0,0
20.09.2018 08:00:00 9,6 4,4 22 12 46 25 SW 41 0,0
20.09.2018 07:00:00 9,4 4,2 19 11 46 25 SW 50 0,0
20.09.2018 06:00:00 10,2 5,2 19 10 44 24 SW 46 0,0
20.09.2018 05:00:00 10,7 6,6 14 8 43 23 SW 47 0,0
20.09.2018 04:00:00 11,0 7,9 10 5 43 23 WSW 50 0,0
20.09.2018 03:00:00 12,3 10,4 18 10 48 26 SW 36 1,5
20.09.2018 02:00:00 12,6 10,3 20 11 48 26 SSW 12 0,0
20.09.2018 01:00:00 13,3 9,0 18 10 50 27 SSW 31 0,0
20.09.2018 00:00:00 13,6 8,6 19 10 50 27 SW 50 0,0
19.09.2018 23:00:00 13,2 9,3 11 6 33 18 S 48 0,0
19.09.2018 22:00:00 13,2 8,7 13 7 37 20 S 24 0,0
19.09.2018 21:00:00 12,9 7,3 13 7 37 20 SSW 48 0,0
19.09.2018 20:00:00 13,7 7,2 15 8 31 17 SW 43 0,0
19.09.2018 19:00:00 14,2 7,0 5 3 36 19 S 50 0,0
19.09.2018 18:00:00 15,7 6,4 14 8 44 24 SW 50 0,0
19.09.2018 17:00:00 15,6 6,6 19 10 48 26 WSW 50 0,0
19.09.2018 16:00:00 16,6 6,1 24 13 48 26 WSW 50 0,0
19.09.2018 15:00:00 16,9 6,7 20 11 45 24 WSW 50 0,0
19.09.2018 14:00:00 17,7 7,7 19 11 52 28 SW 50 0,0
19.09.2018 13:00:00 16,4 7,9 18 10 52 28 WSW 49 0,0
19.09.2018 12:00:00 15,4 7,9 17 9 41 22 WSW 50 0,0
19.09.2018 11:00:00 16,3 9,0 18 10 41 22 SW 47 0,0
19.09.2018 10:00:00 15,6 9,7 13 7 34 19 WSW 46 0,0
19.09.2018 09:00:00 14,5 10,1 9 5 35 19 WNW 50 0,0
19.09.2018 08:00:00 14,8 10,8 11 6 35 19 W 50 0,0
19.09.2018 07:00:00 14,6 11,2 3 2 17 9 S 50 0,0
19.09.2018 06:00:00 14,0 11,5 7 4 16 9 WSW 50 0,0
19.09.2018 05:00:00 13,4 11,6 7 4 24 13 NE 50 0,0
19.09.2018 04:00:00 13,2 11,4 4 2 27 15 N 50 0,0
19.09.2018 03:00:00 12,9 10,8 6 3 35 19 WNW 47 0,0
19.09.2018 02:00:00 12,7 10,2 10 6 35 19 SW 38 0,0
19.09.2018 01:00:00 10,7 9,3 2 1 10 6 ESE 34 0,0
19.09.2018 00:00:00 11,0 8,9 0 0 20 11 N 18 0,1
18.09.2018 23:00:00 12,1 8,8 5 3 20 11 SSW 35 0,0
18.09.2018 22:00:00 11,9 9,1 4 2 13 7 W 40 0,0
18.09.2018 21:00:00 11,9 9,3 4 2 13 7 WNW 38 0,0
18.09.2018 20:00:00 12,7 10,2 3 2 15 8 WSW 38 0,0
18.09.2018 19:00:00 13,6 10,6 3 2 19 10 S 35 0,0
18.09.2018 18:00:00 14,9 10,9 6 3 21 11 SW 49 0,0
18.09.2018 17:00:00 14,0 11,3 9 5 21 11 SW 44 0,0
18.09.2018 16:00:00 14,8 11,2 7 4 23 13 W 50 0,0
18.09.2018 15:00:00 13,0 11,2 13 7 23 13 NNE 50 0,2
18.09.2018 14:00:00 11,6 10,3 5 3 17 9 ENE 38 0,2
18.09.2018 13:00:00 10,6 9,8 8 4 13 7 E 42 0,2
18.09.2018 12:00:00 9,4 8,9 5 3 11 6 E 13 0,0
18.09.2018 11:00:00 8,8 8,3 2 1 11 6 SSE 3,6 0,0
18.09.2018 10:00:00 8,6 7,7 3 2 11 6 S 4,3 0,8
18.09.2018 09:00:00 8,2 7,4 0 0 8 4 N 13 0,6
18.09.2018 08:00:00 7,8 6,9 0 0 11 6 N 50 0,1
18.09.2018 07:00:00 7,5 6,3 4 2 11 6 SSW 30 0,1
18.09.2018 06:00:00 6,7 5,3 4 2 13 7 W 50 0,0
18.09.2018 05:00:00 6,8 5,4 0 0 13 7 N 50 0,0
18.09.2018 04:00:00 6,7 5,3 4 2 19 11 E 50 0,1
18.09.2018 03:00:00 7,5 5,3 0 0 19 11 N 48 0,0
18.09.2018 02:00:00 8,4 4,8 9 5 19 11 WSW 50 0,0
18.09.2018 01:00:00 5,8 3,5 3 2 14 8 W 50 0,0
18.09.2018 00:00:00 5,0 2,9 0 0 16 9 N 50 0,0
17.09.2018 23:00:00 6,0 3,0 4 2 16 9 WSW 50 0,0
17.09.2018 22:00:00 7,0 2,9 6 3 19 11 NW 50 0,0
17.09.2018 21:00:00 4,1 1,5 5 3 19 11 WNW 50 0,0
17.09.2018 20:00:00 3,9 2,2 4 2 10 5 W 50 0,0
17.09.2018 19:00:00 7,5 3,5 3 2 20 11 W 50 0,0
17.09.2018 18:00:00 9,9 1,8 3 1 31 17 W 50 0,0
17.09.2018 17:00:00 11,8 1,7 11 6 31 17 W 49 0,0
17.09.2018 16:00:00 11,8 3,0 9 5 20 11 WSW 50 0,0
17.09.2018 15:00:00 11,5 3,8 9 5 18 10 W 50 0,0
17.09.2018 14:00:00 11,9 4,1 5 3 14 7 WNW 50 0,0
17.09.2018 13:00:00 11,1 5,2 3 1 23 12 SSW 49 0,0
17.09.2018 12:00:00 9,6 5,8 7 4 23 12 NW 50 0,0
17.09.2018 11:00:00 9,9 4,9 10 5 23 12 NW 50 0,0
17.09.2018 10:00:00 9,2 6,3 8 4 24 13 WNW 50 0,0
17.09.2018 09:00:00 7,6 6,2 9 5 24 13 W 50 0,2
17.09.2018 08:00:00 7,4 5,7 11 6 19 10 WNW 50 0,0
17.09.2018 07:00:00 6,9 5,8 8 4 14 8 W 50 0,0
17.09.2018 06:00:00 6,4 5,7 8 4 13 7 W 50 0,0
17.09.2018 05:00:00 5,7 5,4 3 2 11 6 WSW 44 0,0
17.09.2018 04:00:00 6,0 5,7 0 0 11 6 N 50 0,0
17.09.2018 03:00:00 6,2 5,9 3 2 9 5 SE 50 0,0
17.09.2018 02:00:00 5,8 5,5 0 0 10 5 N 7 0,0
17.09.2018 01:00:00 5,4 5,1 3 2 11 6 E 3,3 0,2
17.09.2018 00:00:00 5,1 4,7 6 4 11 6 E 2,7 0,2
16.09.2018 23:00:00 5,1 4,4 3 1 14 8 E 9 0,9
16.09.2018 22:00:00 5,4 3,9 0 0 23 13 N 34 0,6
16.09.2018 21:00:00 6,3 3,1 9 5 23 13 SW 50 0,2
16.09.2018 20:00:00 7,9 1,5 6 4 21 11 SSW 50 0,0
16.09.2018 19:00:00 8,5 1,6 9 5 22 12 SSW 50 0,0
16.09.2018 18:00:00 9,2 0,1 5 3 26 14 SW 50 0,0
16.09.2018 17:00:00 9,8 0,4 9 5 26 14 SW 50 0,0
16.09.2018 16:00:00 10,5 -0,1 14 7 25 14 SSW 50 0,0
16.09.2018 15:00:00 11,6 -0,2 11 6 23 12 SW 50 0,0
16.09.2018 14:00:00 12,1 0,2 8 4 23 12 WSW 36 0,0
16.09.2018 13:00:00 11,2 0,9 11 6 23 12 W 40 0,0
16.09.2018 12:00:00 10,6 0,6 10 6 27 14 W 50 0,0
16.09.2018 11:00:00 9,9 0,8 11 6 27 14 W 41 0,0
16.09.2018 10:00:00 8,1 0,3 13 7 22 12 W 48 0,0
16.09.2018 09:00:00 6,3 1,0 8 5 22 12 W 50 0,0
16.09.2018 08:00:00 -1,2 -2,0 2 1 9 5 NW 50 0,0
16.09.2018 07:00:00 -3,9 -4,6 0 0 8 5 N 50 0,0
16.09.2018 06:00:00 -4,2 -4,6 3 2 10 5 WNW 50 0,0
16.09.2018 05:00:00 -3,5 -3,9 3 2 10 5 W 50 0,0
16.09.2018 04:00:00 -3,3 -3,7 0 0 7 4 N 50 0,0
16.09.2018 03:00:00 -2,9 -3,3 5 3 7 4 W 50 0,0
16.09.2018 02:00:00 -2,6 -3,0 2 1 10 5 W 50 0,0
16.09.2018 01:00:00 -1,7 -2,1 3 2 10 5 W 50 0,0
16.09.2018 00:00:00 -1,5 -1,8 6 4 9 5 WNW 50 0,0
15.09.2018 23:00:00 -0,7 -1,1 3 1 9 5 W 50 0,0
15.09.2018 22:00:00 1,1 0,7 5 3 9 5 W 50 0,0
15.09.2018 21:00:00 3,1 2,2 6 4 44 24 W 50 0,0
15.09.2018 20:00:00 6,5 3,1 6 3 44 24 W 50 0,0
15.09.2018 19:00:00 7,9 1,7 0 0 34 19 N 50 0,0
15.09.2018 18:00:00 10,5 1,6 19 10 32 18 W 50 0,0
15.09.2018 17:00:00 9,6 0,0 15 8 36 19 W 50 0,0
15.09.2018 16:00:00 10,1 0,4 18 10 37 20 W 50 0,0
15.09.2018 15:00:00 12,4 0,8 18 10 37 20 WSW 50 0,0
15.09.2018 14:00:00 11,3 0,1 10 6 32 17 W 50 0,0
15.09.2018 13:00:00 10,7 0,1 13 7 30 16 W 50 0,0
15.09.2018 12:00:00 9,9 0,8 16 9 29 16 WNW 50 0,0
15.09.2018 11:00:00 9,0 2,1 16 9 26 14 W 47 0,0
15.09.2018 10:00:00 7,7 1,7 13 7 24 13 W 50 0,0

tt = Température de l'air
td = dewpoint
ff = Vitesse du vent
fx = gusts
dd = Direction du vent
vv = visibility
rr = Quantités de précipitations

stations d'obs. à proximité